Time;durP1;ratioP1;P1;durP2;ratioP2;P2;SDS_P1;SDS_P2;PMS_P1;PMS_P2;Temp;Humidity;BMP_temperature;BMP_pressure;BME280_temperature;BME280_humidity;BME280_pressure;Samples;Min_cycle;Max_cycle;Signal;HPM_P1;HPM_P2
2024/01/12 00:02:57;;;;;;;63.22;20.13;;;2.20;79.60;;;;;;9172511;19;20015;-71
2024/01/12 00:06:02;;;;;;;59.22;20.33;;;2.20;79.60;;;;;;9174372;19;20554;-71
2024/01/12 00:09:14;;;;;;;59.58;19.23;;;2.20;79.60;;;;;;9174058;19;20342;-71
2024/01/12 00:12:20;;;;;;;63.65;22.40;;;2.20;79.60;;;;;;9171926;19;20605;-72
2024/01/12 00:15:27;;;;;;;49.92;19.80;;;2.20;79.60;;;;;;9173288;19;20021;-71
2024/01/12 00:18:32;;;;;;;59.33;20.08;;;2.20;79.60;;;;;;9169639;19;20696;-71
2024/01/12 00:21:40;;;;;;;57.92;20.27;;;2.20;79.60;;;;;;9173370;19;20018;-71
2024/01/12 00:24:55;;;;;;;62.15;21.17;;;2.20;79.60;;;;;;9173554;19;20054;-71
2024/01/12 00:28:04;;;;;;;54.58;19.38;;;2.20;79.70;;;;;;9172648;19;20021;-71
2024/01/12 00:31:09;;;;;;;57.63;20.35;;;2.20;79.70;;;;;;9171467;19;20006;-71
2024/01/12 00:34:17;;;;;;;63.03;21.83;;;2.20;79.70;;;;;;9173191;19;20018;-72
2024/01/12 00:37:22;;;;;;;56.25;19.55;;;2.20;79.70;;;;;;9174437;19;20048;-71
2024/01/12 00:40:32;;;;;;;62.70;19.50;;;2.20;79.70;;;;;;9171687;19;20500;-71
2024/01/12 00:43:38;;;;;;;65.60;21.80;;;2.20;79.70;;;;;;9171699;19;20473;-71
2024/01/12 00:46:50;;;;;;;59.58;21.33;;;2.20;79.70;;;;;;9172724;19;20046;-72
2024/01/12 00:49:56;;;;;;;54.05;20.48;;;2.20;79.70;;;;;;9173069;19;20626;-72
2024/01/12 00:53:04;;;;;;;56.63;20.65;;;2.20;79.80;;;;;;9172779;19;20029;-71
2024/01/12 00:56:12;;;;;;;67.72;22.73;;;2.20;79.80;;;;;;9171459;19;20022;-72
2024/01/12 00:59:22;;;;;;;56.75;19.40;;;2.20;79.70;;;;;;9172176;19;20010;-72
2024/01/12 01:02:28;;;;;;;60.78;21.08;;;2.20;79.80;;;;;;9170553;19;20025;-71
2024/01/12 01:05:36;;;;;;;68.47;20.73;;;2.20;79.80;;;;;;9177336;19;21341;-72
2024/01/12 01:08:42;;;;;;;58.45;20.10;;;2.20;79.70;;;;;;9181621;19;20018;-72
2024/01/12 01:11:53;;;;;;;61.47;21.45;;;2.20;79.80;;;;;;9182806;19;20078;-72
2024/01/12 01:14:59;;;;;;;67.72;21.80;;;2.20;80.40;;;;;;9179119;19;20037;-72
2024/01/12 01:18:07;;;;;;;58.95;22.23;;;2.20;80.40;;;;;;9177131;19;20021;-72
2024/01/12 01:21:13;;;;;;;65.93;21.75;;;2.20;79.80;;;;;;9178712;19;20011;-72
2024/01/12 01:24:21;;;;;;;60.20;20.13;;;2.30;79.90;;;;;;9177396;19;20014;-72
2024/01/12 01:27:29;;;;;;;58.30;20.73;;;2.20;79.80;;;;;;9178279;19;20602;-72
2024/01/12 01:30:36;;;;;;;60.92;21.15;;;2.20;79.80;;;;;;9180488;19;20010;-72
2024/01/12 01:33:42;;;;;;;52.72;19.58;;;2.20;79.80;;;;;;9179664;19;20021;-72
2024/01/12 01:36:57;;;;;;;62.60;21.48;;;2.30;79.90;;;;;;9180566;19;20014;-72
2024/01/12 01:40:05;;;;;;;64.68;22.33;;;2.20;79.80;;;;;;9178666;19;20346;-73
2024/01/12 01:43:15;;;;;;;60.13;21.30;;;2.30;79.90;;;;;;9180459;19;20082;-72
2024/01/12 01:46:21;;;;;;;58.28;20.13;;;2.30;79.90;;;;;;9177687;19;20116;-72
2024/01/12 01:49:35;;;;;;;55.35;21.20;;;2.30;79.90;;;;;;9180145;19;20033;-72
2024/01/12 01:52:41;;;;;;;69.82;21.52;;;2.30;80.00;;;;;;9179604;19;20011;-72
2024/01/12 01:55:49;;;;;;;57.40;21.08;;;2.30;80.00;;;;;;9178904;19;20484;-72
2024/01/12 01:58:57;;;;;;;62.03;20.23;;;2.30;80.00;;;;;;9179800;19;20014;-72
2024/01/12 02:02:17;;;;;;;63.38;22.58;;;2.30;80.10;;;;;;9179615;19;20018;-71
2024/01/12 02:05:24;;;;;;;59.97;20.48;;;2.30;80.00;;;;;;9179463;19;20022;-72
2024/01/12 02:08:32;;;;;;;60.35;20.73;;;2.30;80.00;;;;;;9175696;19;20033;-71
2024/01/12 02:11:37;;;;;;;56.47;20.35;;;2.30;80.00;;;;;;9178170;19;20019;-71
2024/01/12 02:14:48;;;;;;;68.15;22.15;;;2.30;80.10;;;;;;9177772;19;20026;-72
2024/01/12 02:17:53;;;;;;;60.17;21.13;;;2.30;80.10;;;;;;9174451;19;20010;-71
2024/01/12 02:21:04;;;;;;;60.22;20.60;;;2.30;80.00;;;;;;9175663;19;20014;-71
2024/01/12 02:24:09;;;;;;;62.55;22.40;;;2.30;80.10;;;;;;9177214;19;20060;-72
2024/01/12 02:27:17;;;;;;;54.75;20.25;;;2.30;80.10;;;;;;9175326;19;20030;-72
2024/01/12 02:30:23;;;;;;;55.13;20.30;;;2.30;80.10;;;;;;9177809;19;20017;-72
2024/01/12 02:33:30;;;;;;;53.75;19.50;;;2.30;80.10;;;;;;9176535;19;20010;-72
2024/01/12 02:36:39;;;;;;;59.25;21.25;;;2.30;80.10;;;;;;9176258;19;20006;-72
2024/01/12 02:39:50;;;;;;;56.80;20.52;;;2.30;80.10;;;;;;9176981;19;20015;-74
2024/01/12 02:42:56;;;;;;;53.53;19.23;;;2.30;80.10;;;;;;9177968;19;20019;-71
2024/01/12 02:46:18;;;;;;;58.75;19.80;;;2.30;80.10;;;;;;9176760;19;20018;-72
2024/01/12 02:49:24;;;;;;;57.20;19.77;;;2.30;80.10;;;;;;9177221;19;20101;-72
2024/01/12 02:52:37;;;;;;;59.70;21.17;;;2.30;80.10;;;;;;9177347;19;20048;-72
2024/01/12 02:55:45;;;;;;;54.28;19.70;;;2.30;80.20;;;;;;9176524;19;20118;-71
2024/01/12 02:58:53;;;;;;;55.80;19.88;;;2.30;80.20;;;;;;9175837;19;20361;-72
2024/01/12 03:02:01;;;;;;;62.65;21.52;;;2.30;80.20;;;;;;9175763;19;20011;-72
2024/01/12 03:05:10;;;;;;;54.53;18.80;;;2.30;80.20;;;;;;9177621;19;20029;-72
2024/01/12 03:08:18;;;;;;;54.83;20.65;;;2.40;80.20;;;;;;9175473;19;20021;-72
2024/01/12 03:11:25;;;;;;;57.63;20.65;;;2.30;80.20;;;;;;9176188;19;20472;-72
2024/01/12 03:14:31;;;;;;;62.92;20.65;;;2.40;80.20;;;;;;9176033;19;20015;-72
2024/01/12 03:17:40;;;;;;;50.55;19.50;;;2.40;80.20;;;;;;9169120;19;20014;-72
2024/01/12 03:20:46;;;;;;;60.45;19.58;;;2.30;80.20;;;;;;9174904;19;20098;-72
2024/01/12 03:23:56;;;;;;;50.17;18.75;;;2.30;80.30;;;;;;9177928;19;20022;-72
2024/01/12 03:27:03;;;;;;;57.30;21.50;;;2.40;80.40;;;;;;9174274;19;20946;-72
2024/01/12 03:30:12;;;;;;;56.47;21.17;;;2.40;80.40;;;;;;9175891;19;20015;-70
2024/01/12 03:33:18;;;;;;;62.60;20.52;;;2.40;80.40;;;;;;9177177;19;20364;-70
2024/01/12 03:36:26;;;;;;;55.85;19.10;;;2.40;80.40;;;;;;9176874;19;20022;-70
2024/01/12 03:39:34;;;;;;;56.78;20.90;;;2.40;80.40;;;;;;9176390;19;20014;-70
2024/01/12 03:42:42;;;;;;;57.45;21.27;;;2.40;80.50;;;;;;9172320;19;20030;-70
2024/01/12 03:45:47;;;;;;;60.10;20.02;;;2.40;80.40;;;;;;9176474;19;20018;-70
2024/01/12 03:48:55;;;;;;;47.42;18.95;;;2.40;80.40;;;;;;9176514;19;20028;-70
2024/01/12 03:52:01;;;;;;;48.75;19.05;;;2.40;80.40;;;;;;9174142;19;20014;-71
2024/01/12 03:55:24;;;;;;;44.10;17.83;;;2.40;80.40;;;;;;9176146;19;20022;-70
2024/01/12 03:58:30;;;;;;;55.25;19.95;;;2.40;80.40;;;;;;9176296;19;20014;-70
2024/01/12 04:01:38;;;;;;;49.97;19.20;;;2.40;80.40;;;;;;9174523;19;20084;-70
2024/01/12 04:04:44;;;;;;;52.58;19.13;;;2.40;80.40;;;;;;9176118;19;20014;-70
2024/01/12 04:07:51;;;;;;;62.50;21.65;;;2.40;80.40;;;;;;9174326;19;20022;-70
2024/01/12 04:11:00;;;;;;;54.67;20.75;;;2.40;80.40;;;;;;9176956;19;20018;-71
2024/01/12 04:14:07;;;;;;;58.58;21.27;;;2.40;80.40;;;;;;9174841;19;20015;-71
2024/01/12 04:17:13;;;;;;;54.97;19.77;;;2.40;80.40;;;;;;9170242;19;20099;-71
2024/01/12 04:20:21;;;;;;;53.67;20.25;;;2.40;80.40;;;;;;9175281;19;20026;-71
2024/01/12 04:23:26;;;;;;;57.00;21.15;;;2.40;80.40;;;;;;9172499;19;20353;-72
2024/01/12 04:26:36;;;;;;;55.45;20.48;;;2.40;80.40;;;;;;9174004;19;20022;-71
2024/01/12 04:29:42;;;;;;;55.67;20.00;;;2.40;80.40;;;;;;9174585;19;20014;-71
2024/01/12 04:32:50;;;;;;;53.70;19.70;;;2.40;80.50;;;;;;9173557;19;20018;-70
2024/01/12 04:35:55;;;;;;;56.90;19.05;;;2.40;80.40;;;;;;9174375;19;20018;-70
2024/01/12 04:39:03;;;;;;;46.10;17.33;;;2.40;80.40;;;;;;9178135;19;20247;-70
2024/01/12 04:42:12;;;;;;;47.70;17.40;;;2.40;80.40;;;;;;9181885;19;20389;-71
2024/01/12 04:45:20;;;;;;;53.63;19.20;;;2.40;80.50;;;;;;9183322;19;20049;-71
2024/01/12 04:48:26;;;;;;;48.40;19.13;;;2.40;80.40;;;;;;9182668;19;20022;-70
2024/01/12 04:51:34;;;;;;;45.20;18.05;;;2.40;80.50;;;;;;9182870;19;20025;-72
2024/01/12 04:54:40;;;;;;;49.25;17.20;;;2.40;80.50;;;;;;9183266;19;20010;-71
2024/01/12 04:57:50;;;;;;;58.10;19.45;;;2.40;80.50;;;;;;9182359;19;20015;-70
2024/01/12 05:00:55;;;;;;;46.63;17.48;;;2.40;80.50;;;;;;9182707;19;20007;-70
2024/01/12 05:04:03;;;;;;;52.15;17.65;;;2.40;80.50;;;;;;9181578;19;20377;-71
2024/01/12 05:07:08;;;;;;;47.42;16.98;;;2.40;80.50;;;;;;9180223;19;20556;-71
2024/01/12 05:10:16;;;;;;;43.17;16.70;;;2.40;80.60;;;;;;9179585;19;20026;-70
2024/01/12 05:13:24;;;;;;;42.80;16.20;;;2.40;80.50;;;;;;9182386;19;20026;-70
2024/01/12 05:16:32;;;;;;;43.15;13.45;;;2.40;80.60;;;;;;9177516;19;20025;-71
2024/01/12 05:19:37;;;;;;;38.00;12.30;;;2.40;80.60;;;;;;9182586;19;20030;-71
2024/01/12 05:22:45;;;;;;;34.38;11.98;;;2.40;80.60;;;;;;9179749;19;20015;-71
2024/01/12 05:25:51;;;;;;;33.22;12.57;;;2.40;80.60;;;;;;9181898;19;20014;-70
2024/01/12 05:29:08;;;;;;;30.30;12.73;;;2.50;80.70;;;;;;9179720;19;20368;-71
2024/01/12 05:32:13;;;;;;;39.72;15.02;;;2.50;80.70;;;;;;9180109;19;20052;-70
2024/01/12 05:35:21;;;;;;;36.35;13.80;;;2.50;80.70;;;;;;9180841;19;20017;-71
2024/01/12 05:38:27;;;;;;;38.17;14.15;;;2.50;80.70;;;;;;9181089;19;20010;-71
2024/01/12 05:41:35;;;;;;;38.90;13.65;;;2.50;80.70;;;;;;9180015;19;20370;-72
2024/01/12 05:44:43;;;;;;;44.83;13.70;;;2.50;80.70;;;;;;9181753;19;20479;-70
2024/01/12 05:47:58;;;;;;;34.75;11.95;;;2.50;81.30;;;;;;9179424;19;20018;-70
2024/01/12 05:51:10;;;;;;;33.75;11.32;;;2.50;80.80;;;;;;9180075;19;20021;-70
2024/01/12 05:54:18;;;;;;;30.67;12.32;;;2.50;80.80;;;;;;9180792;19;20021;-70
2024/01/12 05:57:23;;;;;;;31.20;10.85;;;2.50;80.80;;;;;;9178879;19;20024;-70
2024/01/12 06:00:36;;;;;;;30.20;10.25;;;2.50;80.80;;;;;;9180551;19;20029;-69
2024/01/12 06:03:41;;;;;;;27.75;10.57;;;2.50;80.80;;;;;;9177666;19;20017;-70
2024/01/12 06:06:49;;;;;;;26.55;10.80;;;2.60;80.90;;;;;;9176624;19;20010;-70
2024/01/12 06:09:55;;;;;;;30.27;11.85;;;2.50;80.80;;;;;;9180590;19;20014;-70
2024/01/12 06:13:03;;;;;;;35.90;10.95;;;2.60;80.90;;;;;;9177425;19;20018;-70
2024/01/12 06:16:11;;;;;;;27.75;9.90;;;2.60;80.90;;;;;;9175944;19;20011;-70
2024/01/12 06:19:19;;;;;;;38.78;11.80;;;2.60;80.90;;;;;;9177487;19;20879;-70
2024/01/12 06:22:24;;;;;;;26.15;10.63;;;2.60;80.90;;;;;;9176060;19;20018;-70
2024/01/12 06:25:36;;;;;;;27.00;9.75;;;2.60;80.90;;;;;;9174491;19;20014;-71
2024/01/12 06:28:42;;;;;;;30.88;10.77;;;2.60;80.90;;;;;;9177208;19;20018;-70
2024/01/12 06:31:53;;;;;;;34.33;10.68;;;2.60;80.90;;;;;;9175940;19;20014;-71
2024/01/12 06:34:59;;;;;;;24.63;9.82;;;2.60;80.90;;;;;;9179145;19;20014;-70
2024/01/12 06:38:07;;;;;;;27.85;10.23;;;2.60;81.00;;;;;;9179159;19;20025;-70
2024/01/12 06:41:14;;;;;;;33.10;10.05;;;2.60;81.00;;;;;;9177305;19;20078;-71
2024/01/12 06:44:22;;;;;;;22.85;8.82;;;2.60;81.00;;;;;;9176987;19;20033;-70
2024/01/12 06:47:30;;;;;;;26.00;9.50;;;2.60;80.90;;;;;;9178429;19;20015;-70
2024/01/12 06:50:38;;;;;;;25.70;8.93;;;2.70;81.00;;;;;;9177794;19;20030;-70
2024/01/12 06:53:44;;;;;;;20.13;8.18;;;2.60;81.00;;;;;;9178607;19;20342;-70
2024/01/12 06:56:52;;;;;;;27.25;8.90;;;2.70;80.90;;;;;;9177460;19;20476;-70
2024/01/12 06:59:58;;;;;;;21.83;9.35;;;2.70;81.00;;;;;;9178344;19;20018;-71
2024/01/12 07:03:08;;;;;;;26.38;8.98;;;2.70;81.00;;;;;;9169892;19;20018;-71
2024/01/12 07:06:14;;;;;;;25.60;9.20;;;2.70;81.10;;;;;;9176364;19;20015;-73
2024/01/12 07:09:22;;;;;;;32.45;9.00;;;2.70;81.00;;;;;;9176913;19;20034;-71
2024/01/12 07:12:28;;;;;;;19.67;8.45;;;2.70;81.00;;;;;;9177031;19;20811;-72
2024/01/12 07:15:35;;;;;;;22.65;8.73;;;2.70;81.00;;;;;;9177611;19;20010;-71
2024/01/12 07:18:44;;;;;;;30.02;10.40;;;2.70;81.00;;;;;;9171438;19;20439;-72
2024/01/12 07:21:54;;;;;;;25.73;9.57;;;2.70;81.00;;;;;;9176871;19;20022;-72
2024/01/12 07:25:00;;;;;;;28.33;11.18;;;2.70;81.10;;;;;;9175452;19;20391;-72
2024/01/12 07:28:10;;;;;;;23.77;9.77;;;2.70;81.10;;;;;;9176928;19;20022;-73
2024/01/12 07:31:16;;;;;;;26.70;10.38;;;2.60;81.10;;;;;;9177530;19;20368;-73
2024/01/12 07:34:26;;;;;;;31.98;10.77;;;2.70;81.10;;;;;;9176087;19;20722;-73
2024/01/12 07:37:34;;;;;;;32.45;8.80;;;2.70;81.20;;;;;;9177376;19;20030;-73
2024/01/12 07:40:42;;;;;;;28.55;9.45;;;2.70;81.10;;;;;;9176391;19;20011;-73
2024/01/12 07:43:47;;;;;;;30.63;10.02;;;2.70;81.10;;;;;;9175069;19;20015;-72
2024/01/12 07:46:55;;;;;;;32.30;12.07;;;2.70;81.10;;;;;;9175897;19;20037;-73
2024/01/12 07:50:03;;;;;;;20.67;9.85;;;2.70;81.10;;;;;;9176469;19;20030;-73
2024/01/12 07:53:11;;;;;;;32.28;10.93;;;2.70;81.10;;;;;;9175104;19;20022;-72
2024/01/12 07:56:16;;;;;;;26.30;10.27;;;2.70;81.10;;;;;;9175322;19;20021;-73
2024/01/12 07:59:24;;;;;;;26.27;10.02;;;2.70;81.10;;;;;;9175403;19;20033;-72
2024/01/12 08:02:30;;;;;;;28.55;9.65;;;2.70;81.10;;;;;;9176764;19;20018;-72
2024/01/12 08:05:40;;;;;;;26.92;9.45;;;2.70;81.10;;;;;;9171195;19;20724;-72
2024/01/12 08:08:46;;;;;;;27.67;10.63;;;2.70;81.10;;;;;;9175783;19;20018;-72
2024/01/12 08:11:53;;;;;;;27.10;10.02;;;2.70;81.20;;;;;;9173107;19;20018;-72
2024/01/12 08:14:59;;;;;;;27.13;10.93;;;2.70;81.20;;;;;;9182063;19;20427;-72
2024/01/12 08:18:07;;;;;;;29.05;10.80;;;2.70;81.20;;;;;;9180027;19;20021;-72
2024/01/12 08:21:19;;;;;;;28.85;9.98;;;2.80;81.30;;;;;;9180146;19;20346;-72
2024/01/12 08:24:26;;;;;;;25.95;9.43;;;2.80;81.30;;;;;;9181210;19;20022;-72
2024/01/12 08:27:34;;;;;;;30.60;9.55;;;2.70;81.20;;;;;;9179572;19;20041;-73
2024/01/12 08:30:43;;;;;;;31.85;9.55;;;2.70;81.30;;;;;;9184272;19;20018;-72
2024/01/12 08:33:51;;;;;;;26.50;9.68;;;2.80;81.30;;;;;;9182992;19;20010;-72
2024/01/12 08:37:01;;;;;;;24.65;8.55;;;2.80;81.30;;;;;;9181102;19;20116;-71
2024/01/12 08:40:11;;;;;;;29.10;9.75;;;2.80;81.30;;;;;;9183143;19;20488;-74
2024/01/12 08:43:19;;;;;;;24.88;9.63;;;2.80;81.30;;;;;;9180373;19;20022;-72
2024/01/12 08:46:27;;;;;;;25.63;10.48;;;2.80;81.30;;;;;;9184323;19;20070;-71
2024/01/12 08:49:34;;;;;;;22.25;9.73;;;2.80;81.30;;;;;;9184702;19;20026;-71
2024/01/12 08:52:46;;;;;;;25.23;8.18;;;2.80;81.60;;;;;;9183160;19;20043;-71
2024/01/12 08:55:56;;;;;;;20.95;8.43;;;2.90;81.40;;;;;;9182117;19;20369;-71
2024/01/12 08:59:03;;;;;;;16.67;8.15;;;2.80;81.30;;;;;;9181789;19;20017;-70
2024/01/12 09:02:14;;;;;;;27.10;8.63;;;2.90;81.30;;;;;;9179408;19;20029;-71
2024/01/12 09:05:20;;;;;;;23.23;9.45;;;2.90;81.40;;;;;;9180385;19;20018;-71
2024/01/12 09:08:35;;;;;;;29.75;9.15;;;2.90;81.40;;;;;;9178010;19;20679;-71
2024/01/12 09:11:42;;;;;;;21.33;9.30;;;2.90;81.40;;;;;;9182594;19;20037;-71
2024/01/12 09:14:50;;;;;;;25.67;9.82;;;2.90;81.50;;;;;;9181344;19;20040;-71
2024/01/12 09:17:55;;;;;;;22.08;7.55;;;2.90;81.50;;;;;;9177072;19;20019;-72
2024/01/12 09:21:03;;;;;;;19.13;6.97;;;3.00;81.60;;;;;;9180620;19;20033;-72
2024/01/12 09:24:16;;;;;;;25.20;8.85;;;3.00;81.60;;;;;;9180814;19;20491;-72
2024/01/12 09:27:24;;;;;;;49.85;11.55;;;3.00;81.70;;;;;;9180102;19;20483;-72
2024/01/12 09:30:29;;;;;;;18.98;8.30;;;3.00;81.60;;;;;;9182101;19;20014;-72
2024/01/12 09:33:37;;;;;;;24.42;8.10;;;3.10;81.70;;;;;;9181059;19;20029;-72
2024/01/12 09:36:46;;;;;;;24.98;7.70;;;3.10;81.70;;;;;;9182249;19;20400;-72
2024/01/12 09:39:58;;;;;;;32.78;8.88;;;3.10;81.70;;;;;;9179798;19;20015;-72
2024/01/12 09:43:06;;;;;;;22.73;7.78;;;3.10;81.70;;;;;;9178607;19;20022;-72
2024/01/12 09:46:19;;;;;;;29.73;7.60;;;3.20;81.70;;;;;;9175481;19;20139;-72
2024/01/12 09:49:26;;;;;;;20.88;8.02;;;3.20;81.70;;;;;;9176637;19;20457;-72
2024/01/12 09:52:34;;;;;;;20.15;6.88;;;3.20;82.30;;;;;;9180589;19;20020;-72
2024/01/12 09:55:42;;;;;;;21.23;8.32;;;3.20;82.30;;;;;;9181080;19;20049;-72
2024/01/12 09:58:50;;;;;;;22.20;8.35;;;3.20;81.80;;;;;;9180726;19;20377;-73
2024/01/12 10:01:56;;;;;;;18.45;7.55;;;3.30;81.70;;;;;;9180718;19;20483;-72
2024/01/12 10:05:09;;;;;;;20.60;9.10;;;3.30;81.70;;;;;;9180276;19;21104;-72
2024/01/12 10:08:15;;;;;;;31.15;7.93;;;3.30;81.70;;;;;;9177854;19;20025;-72
2024/01/12 10:11:25;;;;;;;23.95;7.55;;;3.30;81.80;;;;;;9180654;19;20028;-72
2024/01/12 10:14:30;;;;;;;20.30;7.18;;;3.30;81.90;;;;;;9181203;19;20048;-72
2024/01/12 10:17:38;;;;;;;19.17;6.50;;;3.30;81.90;;;;;;9175799;19;20014;-72
2024/01/12 10:20:44;;;;;;;17.23;6.65;;;3.40;81.90;;;;;;9179905;19;20019;-72
2024/01/12 10:23:52;;;;;;;33.30;8.38;;;3.40;81.90;;;;;;9179415;19;20014;-72
2024/01/12 10:27:05;;;;;;;23.70;7.72;;;3.40;81.90;;;;;;9175566;19;20010;-72
2024/01/12 10:30:14;;;;;;;27.90;7.78;;;3.40;82.00;;;;;;9177885;19;20011;-71
2024/01/12 10:33:20;;;;;;;26.85;6.95;;;3.50;82.10;;;;;;9179089;19;20366;-71
2024/01/12 10:36:30;;;;;;;14.93;6.72;;;3.50;82.00;;;;;;9178931;19;20010;-71
2024/01/12 10:39:38;;;;;;;16.73;7.80;;;3.50;82.10;;;;;;9179228;19;20393;-71
2024/01/12 10:42:50;;;;;;;26.20;7.70;;;3.60;82.10;;;;;;9179141;19;20015;-71
2024/01/12 10:46:00;;;;;;;16.48;7.65;;;3.60;82.10;;;;;;9176963;19;20022;-71
2024/01/12 10:49:14;;;;;;;15.93;6.47;;;3.60;82.10;;;;;;9176017;19;20014;-71
2024/01/12 10:52:34;;;;;;;19.10;7.72;;;3.70;82.10;;;;;;9177745;19;20022;-71
2024/01/12 10:55:50;;;;;;;17.10;6.55;;;3.70;82.10;;;;;;9174728;19;20025;-71
2024/01/12 10:58:58;;;;;;;24.95;6.97;;;3.70;82.10;;;;;;9175308;19;20026;-71
2024/01/12 11:02:06;;;;;;;15.52;7.45;;;3.70;82.10;;;;;;9174925;19;20629;-70
2024/01/12 11:05:13;;;;;;;16.17;7.47;;;3.80;82.20;;;;;;9174132;19;20025;-70
2024/01/12 11:08:22;;;;;;;28.63;6.88;;;3.80;82.10;;;;;;9173022;19;20109;-71
2024/01/12 11:11:37;;;;;;;23.60;7.60;;;3.80;82.10;;;;;;9175589;19;20015;-71
2024/01/12 11:14:47;;;;;;;19.60;7.47;;;3.90;82.20;;;;;;9176588;19;20503;-71
2024/01/12 11:17:53;;;;;;;22.67;8.27;;;3.90;82.10;;;;;;9170368;19;20869;-71
2024/01/12 11:21:04;;;;;;;21.10;8.45;;;3.90;82.20;;;;;;9173766;19;20365;-75
2024/01/12 11:24:12;;;;;;;25.65;8.00;;;3.90;82.20;;;;;;9174011;19;20022;-71
2024/01/12 11:27:20;;;;;;;20.27;7.20;;;3.90;82.80;;;;;;9171586;19;20021;-71
2024/01/12 11:30:29;;;;;;;16.48;7.43;;;4.00;82.20;;;;;;9170459;19;20089;-71
2024/01/12 11:33:43;;;;;;;19.88;7.82;;;4.00;82.30;;;;;;9173826;19;20033;-71
2024/01/12 11:37:00;;;;;;;17.70;6.90;;;4.00;82.30;;;;;;9176616;19;20014;-71
2024/01/12 11:40:10;;;;;;;21.38;7.82;;;4.10;82.40;;;;;;9175929;19;20488;-71
2024/01/12 11:43:19;;;;;;;28.52;7.40;;;4.10;82.30;;;;;;9174799;19;20030;-72
2024/01/12 11:46:29;;;;;;;19.60;8.23;;;4.10;82.30;;;;;;9173317;19;20376;-72
2024/01/12 11:49:35;;;;;;;29.17;7.80;;;4.10;82.30;;;;;;9173298;19;20018;-72
2024/01/12 11:52:43;;;;;;;29.27;7.28;;;4.20;82.30;;;;;;9174696;19;20014;-72
2024/01/12 11:55:49;;;;;;;22.92;7.43;;;4.20;82.30;;;;;;9175015;19;20632;-72
2024/01/12 11:58:56;;;;;;;35.58;7.72;;;4.20;82.30;;;;;;9175933;19;20756;-72
2024/01/12 12:02:05;;;;;;;22.60;8.32;;;4.30;82.40;;;;;;9174197;19;20014;-72
2024/01/12 12:05:13;;;;;;;30.42;8.00;;;4.30;82.40;;;;;;9174321;19;20051;-72
2024/01/12 12:08:19;;;;;;;22.10;7.63;;;4.30;82.40;;;;;;9172816;19;20048;-72
2024/01/12 12:11:29;;;;;;;19.92;6.93;;;4.30;82.40;;;;;;9175751;19;20049;-72
2024/01/12 12:14:35;;;;;;;18.52;7.15;;;4.40;82.50;;;;;;9167563;19;20033;-72
2024/01/12 12:17:47;;;;;;;15.00;8.48;;;4.40;82.40;;;;;;9169937;19;20014;-73
2024/01/12 12:20:53;;;;;;;19.30;6.95;;;4.40;82.40;;;;;;9175260;19;20775;-72
2024/01/12 12:24:01;;;;;;;22.58;7.47;;;4.50;82.50;;;;;;9173024;19;20022;-72
2024/01/12 12:27:10;;;;;;;24.77;7.40;;;4.50;82.50;;;;;;9171329;19;20097;-72
2024/01/12 12:30:35;;;;;;;20.38;7.22;;;4.50;82.60;;;;;;9174283;19;20018;-71
2024/01/12 12:33:45;;;;;;;22.92;7.18;;;4.60;82.60;;;;;;9172686;19;20026;-71
2024/01/12 12:36:56;;;;;;;23.50;8.73;;;4.60;82.60;;;;;;9173152;19;20026;-72
2024/01/12 12:40:03;;;;;;;27.40;8.05;;;4.70;82.60;;;;;;9166733;19;20022;-72
2024/01/12 12:43:11;;;;;;;24.30;7.10;;;4.70;82.60;;;;;;9169828;19;20499;-71
2024/01/12 12:46:18;;;;;;;21.40;7.15;;;4.70;82.60;;;;;;9171687;19;20018;-72
2024/01/12 12:49:51;;;;;;;25.60;6.68;;;4.80;82.70;;;;;;9171269;19;20424;-72
2024/01/12 12:53:03;;;;;;;22.50;6.90;;;4.80;82.70;;;;;;9172455;19;20015;-72
2024/01/12 12:56:17;;;;;;;25.20;6.63;;;4.90;82.80;;;;;;9172014;19;20017;-73
2024/01/12 12:59:23;;;;;;;16.98;5.97;;;4.90;82.80;;;;;;9174381;19;20014;-73
2024/01/12 13:02:35;;;;;;;19.95;5.90;;;4.90;82.80;;;;;;9178502;19;20074;-71
2024/01/12 13:05:48;;;;;;;19.23;5.32;;;5.00;82.80;;;;;;9180397;19;20017;-70
2024/01/12 13:08:59;;;;;;;19.42;5.80;;;5.00;82.90;;;;;;9182851;19;20011;-71
2024/01/12 13:12:06;;;;;;;19.33;6.03;;;5.00;82.80;;;;;;9181148;19;20018;-70
2024/01/12 13:15:16;;;;;;;22.52;6.20;;;5.10;82.90;;;;;;9180499;19;20009;-72
2024/01/12 13:18:35;;;;;;;30.10;5.63;;;5.20;82.90;;;;;;9177420;19;20022;-70
2024/01/12 13:21:47;;;;;;;19.10;5.55;;;5.20;82.90;;;;;;9179229;19;20019;-70
2024/01/12 13:24:54;;;;;;;21.48;4.40;;;5.20;82.90;;;;;;9179700;19;20026;-71
2024/01/12 13:28:02;;;;;;;23.85;5.13;;;5.30;82.90;;;;;;9178264;19;20018;-72
2024/01/12 13:31:08;;;;;;;21.80;3.90;;;5.30;82.90;;;;;;9180349;19;20104;-70
2024/01/12 13:34:16;;;;;;;13.95;4.43;;;5.40;82.90;;;;;;9178525;19;20369;-71
2024/01/12 13:37:27;;;;;;;17.40;4.35;;;5.40;82.90;;;;;;9177243;19;20089;-73
2024/01/12 13:40:37;;;;;;;28.88;5.28;;;5.40;82.90;;;;;;9179522;19;20018;-73
2024/01/12 13:43:42;;;;;;;22.50;4.80;;;5.40;82.90;;;;;;9182079;19;20018;-73
2024/01/12 13:46:50;;;;;;;17.70;3.85;;;5.40;82.90;;;;;;9181061;19;20010;-72
2024/01/12 13:50:06;;;;;;;15.15;3.97;;;5.50;83.60;;;;;;9180694;19;20368;-73
2024/01/12 13:53:20;;;;;;;21.50;4.68;;;5.50;83.00;;;;;;9177144;19;20468;-73
2024/01/12 13:56:26;;;;;;;17.85;4.40;;;5.50;83.00;;;;;;9167031;19;20010;-73
2024/01/12 13:59:41;;;;;;;14.43;4.03;;;5.50;83.00;;;;;;9162564;19;20022;-73
2024/01/12 14:02:51;;;;;;;16.73;3.97;;;5.50;83.00;;;;;;9165235;19;20022;-73
2024/01/12 14:06:00;;;;;;;21.48;4.00;;;5.50;83.00;;;;;;9166494;19;20488;-72
2024/01/12 14:09:14;;;;;;;12.30;3.92;;;5.60;83.00;;;;;;9176982;19;20018;-74
2024/01/12 14:12:23;;;;;;;8.20;3.87;;;5.50;83.00;;;;;;9176859;19;20406;-72
2024/01/12 14:15:34;;;;;;;16.27;3.78;;;5.60;83.00;;;;;;9179839;19;20366;-73
2024/01/12 14:18:42;;;;;;;17.08;3.80;;;5.60;83.00;;;;;;9175035;19;20014;-73
2024/01/12 14:21:55;;;;;;;23.77;5.07;;;5.60;83.00;;;;;;9179224;19;20015;-73
2024/01/12 14:25:09;;;;;;;16.08;3.53;;;5.60;83.10;;;;;;9176597;19;20425;-73
2024/01/12 14:28:15;;;;;;;21.80;3.85;;;5.60;83.10;;;;;;9177445;19;20011;-72
2024/01/12 14:31:47;;;;;;;11.50;3.90;;;5.60;83.10;;;;;;9177541;19;20014;-72
2024/01/12 14:34:55;;;;;;;19.80;5.03;;;5.60;83.00;;;;;;9179044;19;20014;-73
2024/01/12 14:38:06;;;;;;;17.27;5.90;;;5.60;83.10;;;;;;9178961;19;20022;-72
2024/01/12 14:41:16;;;;;;;18.33;6.22;;;5.60;83.00;;;;;;9174906;19;20053;-73
2024/01/12 14:44:27;;;;;;;25.42;10.48;;;5.60;83.10;;;;;;9177101;19;20029;-73
2024/01/12 14:47:34;;;;;;;19.95;8.80;;;5.60;83.10;;;;;;9177896;19;20060;-73
2024/01/12 14:50:43;;;;;;;25.73;8.15;;;5.60;83.10;;;;;;9177135;19;20015;-73
2024/01/12 14:53:53;;;;;;;23.42;5.85;;;5.60;83.10;;;;;;9176864;19;20010;-73
2024/01/12 14:57:03;;;;;;;22.65;5.60;;;5.60;83.10;;;;;;9178003;19;20027;-73
2024/01/12 15:00:15;;;;;;;18.63;6.65;;;5.60;83.70;;;;;;9177356;19;20022;-73
2024/01/12 15:03:25;;;;;;;19.90;4.72;;;5.60;83.10;;;;;;9177889;19;20033;-73
2024/01/12 15:06:33;;;;;;;17.42;6.43;;;5.60;83.20;;;;;;9175448;19;20031;-73
2024/01/12 15:09:46;;;;;;;24.13;5.57;;;5.60;83.20;;;;;;9170511;19;20014;-72
2024/01/12 15:12:56;;;;;;;25.45;5.05;;;5.60;83.20;;;;;;9177705;19;20018;-72
2024/01/12 15:16:04;;;;;;;23.45;6.93;;;5.60;83.20;;;;;;9170964;19;20422;-73
2024/01/12 15:19:10;;;;;;;22.80;5.90;;;5.60;83.20;;;;;;9176127;19;20018;-72
2024/01/12 15:22:24;;;;;;;25.73;5.93;;;5.60;83.20;;;;;;9175286;19;20060;-73
2024/01/12 15:25:33;;;;;;;20.13;5.75;;;5.60;83.30;;;;;;9174648;19;20014;-72
2024/01/12 15:28:45;;;;;;;16.30;4.75;;;5.60;83.30;;;;;;9173149;19;20025;-72
2024/01/12 15:31:53;;;;;;;21.20;6.00;;;5.60;83.30;;;;;;9176526;19;20018;-72
2024/01/12 15:35:01;;;;;;;23.58;4.95;;;5.60;83.30;;;;;;9175379;19;20014;-72
2024/01/12 15:38:09;;;;;;;22.60;4.35;;;5.60;83.20;;;;;;9172161;19;20015;-72
2024/01/12 15:41:23;;;;;;;18.75;4.78;;;5.50;83.20;;;;;;9174346;19;20007;-71
2024/01/12 15:44:35;;;;;;;20.42;3.65;;;5.50;83.30;;;;;;9174230;19;20134;-72
2024/01/12 15:47:47;;;;;;;14.57;4.17;;;5.50;83.30;;;;;;9173752;19;20018;-71
2024/01/12 15:50:53;;;;;;;12.70;3.53;;;5.50;83.90;;;;;;9173046;19;20533;-71
2024/01/12 15:54:00;;;;;;;16.17;3.55;;;5.50;83.30;;;;;;9173508;19;20416;-72
2024/01/12 15:57:06;;;;;;;16.45;3.42;;;5.40;83.30;;;;;;9175877;19;20014;-72
2024/01/12 16:00:19;;;;;;;16.70;3.13;;;5.40;83.30;;;;;;9174863;19;20029;-72
2024/01/12 16:03:24;;;;;;;16.67;4.03;;;5.40;83.30;;;;;;9175239;19;20015;-72
2024/01/12 16:06:33;;;;;;;16.15;4.28;;;5.40;83.30;;;;;;9175090;19;20014;-72
2024/01/12 16:09:39;;;;;;;14.05;4.78;;;5.10;83.10;;;;;;9172426;19;20019;-73
2024/01/12 16:12:47;;;;;;;21.45;3.97;;;5.40;83.40;;;;;;9174970;19;20023;-72
2024/01/12 16:15:55;;;;;;;11.75;3.58;;;5.40;83.40;;;;;;9171873;19;20043;-73
2024/01/12 16:19:03;;;;;;;19.48;5.28;;;5.30;83.30;;;;;;9175755;19;20012;-73